createdAt,value
2016-12-01T00:00:24.933Z,2.17
2016-12-01T00:00:46.657Z,2.18
2016-12-01T00:01:11.045Z,2.19
2016-12-01T00:01:32.760Z,2.22
2016-12-01T00:02:04.019Z,2.20
2016-12-01T00:02:31.529Z,2.20
2016-12-01T00:03:56.763Z,2.22
2016-12-01T00:04:18.476Z,2.22
2016-12-01T00:04:42.977Z,2.21
2016-12-01T00:05:34.145Z,2.24
2016-12-01T00:05:55.877Z,2.26
2016-12-01T00:06:48.849Z,2.30
2016-12-01T00:07:16.323Z,2.29
2016-12-01T00:07:39.078Z,2.29
2016-12-01T00:08:34.783Z,2.32
2016-12-01T00:09:01.288Z,2.33
2016-12-01T00:09:27.773Z,2.31
2016-12-01T00:11:21.335Z,2.27
2016-12-01T00:11:43.058Z,2.28
2016-12-01T00:12:05.775Z,2.29
2016-12-01T00:13:05.515Z,2.28
2016-12-01T00:13:27.231Z,2.28
2016-12-01T00:13:48.950Z,2.25
2016-12-01T00:14:18.295Z,2.25
2016-12-01T00:14:46.792Z,2.27
2016-12-01T00:15:08.640Z,2.27
2016-12-01T00:15:31.365Z,2.26
2016-12-01T00:15:53.075Z,2.28
2016-12-01T00:17:15.555Z,2.28
2016-12-01T00:17:37.270Z,2.25
2016-12-01T00:18:28.380Z,2.26
2016-12-01T00:18:55.857Z,2.26
2016-12-01T00:19:48.856Z,2.28
2016-12-01T00:20:10.581Z,2.29
2016-12-01T00:20:32.287Z,2.30
2016-12-01T00:20:54.019Z,2.29
2016-12-01T00:21:15.735Z,2.29
2016-12-01T00:21:37.628Z,2.29
2016-12-01T00:22:00.362Z,2.28
2016-12-01T00:22:22.076Z,2.29
2016-12-01T00:22:43.791Z,2.30
2016-12-01T00:23:05.513Z,2.29
2016-12-01T00:23:28.220Z,2.29
2016-12-01T00:23:54.708Z,2.30
2016-12-01T00:24:21.197Z,2.31
2016-12-01T00:24:45.655Z,2.34
2016-12-01T00:25:07.370Z,2.34
2016-12-01T00:25:29.079Z,2.32
2016-12-01T00:26:17.327Z,2.33
2016-12-01T00:26:48.590Z,2.32
2016-12-01T00:27:38.812Z,2.31
2016-12-01T00:28:00.517Z,2.30
2016-12-01T00:28:22.228Z,2.31
2016-12-01T00:28:44.947Z,2.30
2016-12-01T00:29:06.670Z,2.29
2016-12-01T00:29:28.388Z,2.29
2016-12-01T00:29:50.099Z,2.29
2016-12-01T00:30:17.408Z,2.30
2016-12-01T00:30:48.490Z,2.32
2016-12-01T00:31:10.243Z,2.33
2016-12-01T00:31:33.924Z,2.33
2016-12-01T00:32:01.405Z,2.33
2016-12-01T00:32:23.142Z,2.33
2016-12-01T00:32:44.870Z,2.32
2016-12-01T00:33:11.387Z,2.33
2016-12-01T00:33:33.106Z,2.34
2016-12-01T00:33:54.825Z,2.34
2016-12-01T00:34:17.543Z,2.35
2016-12-01T00:34:39.268Z,2.37
2016-12-01T00:35:01.984Z,2.40
2016-12-01T00:35:26.270Z,2.39
2016-12-01T00:35:52.766Z,2.39
2016-12-01T00:36:19.383Z,2.39
2016-12-01T00:37:07.476Z,2.39
2016-12-01T00:37:29.198Z,2.36
2016-12-01T00:37:50.911Z,2.35
2016-12-01T00:38:13.628Z,2.35
2016-12-01T00:38:40.116Z,2.36
2016-12-01T00:39:28.343Z,2.33
2016-12-01T00:39:54.825Z,2.31
2016-12-01T00:40:21.309Z,2.31
2016-12-01T00:40:52.910Z,2.33
2016-12-01T00:41:14.640Z,2.33
2016-12-01T00:41:36.349Z,2.33
2016-12-01T00:41:58.075Z,2.34
2016-12-01T00:42:19.803Z,2.34
2016-12-01T00:43:09.005Z,2.37
2016-12-01T00:43:35.499Z,2.39
2016-12-01T00:43:58.219Z,2.39
2016-12-01T00:44:25.736Z,2.37
2016-12-01T00:44:47.458Z,2.35
2016-12-01T00:45:09.177Z,2.34
2016-12-01T00:45:58.382Z,2.34
2016-12-01T00:46:20.103Z,2.33
2016-12-01T00:46:41.810Z,2.36
2016-12-01T00:47:03.532Z,2.35
2016-12-01T00:47:25.242Z,2.38
2016-12-01T00:47:51.736Z,2.35
2016-12-01T00:48:13.449Z,2.35
2016-12-01T00:48:39.933Z,2.33
2016-12-01T00:49:09.028Z,2.31
2016-12-01T00:50:04.919Z,2.33
2016-12-01T00:50:26.772Z,2.31
2016-12-01T00:50:56.095Z,2.32
2016-12-01T00:51:32.119Z,2.32
2016-12-01T00:52:08.675Z,2.38
2016-12-01T00:53:06.434Z,2.34
2016-12-01T00:53:32.939Z,2.34
2016-12-01T00:53:54.654Z,2.34
2016-12-01T00:54:17.367Z,2.35
2016-12-01T00:54:44.841Z,2.32
2016-12-01T00:55:06.564Z,2.34
2016-12-01T00:55:33.044Z,2.33
2016-12-01T00:55:57.340Z,2.33
2016-12-01T00:56:23.932Z,2.33
2016-12-01T00:56:55.194Z,2.32
2016-12-01T00:57:17.901Z,2.33
2016-12-01T00:58:12.701Z,2.33
2016-12-01T00:58:35.425Z,2.35
2016-12-01T00:58:57.155Z,2.35
2016-12-01T00:59:18.868Z,2.35
2016-12-01T00:59:40.574Z,2.34
2016-12-01T01:00:07.096Z,2.34
2016-12-01T01:00:28.814Z,2.36
2016-12-01T01:01:23.780Z,2.34
2016-12-01T01:01:45.503Z,2.34
2016-12-01T01:02:11.985Z,2.35
2016-12-01T01:02:39.469Z,2.36
2016-12-01T01:03:29.696Z,2.35
2016-12-01T01:03:59.082Z,2.34
2016-12-01T01:04:23.405Z,2.35
2016-12-01T01:04:49.903Z,2.36
2016-12-01T01:05:16.396Z,2.36
2016-12-01T01:05:39.121Z,2.35
2016-12-01T01:06:00.839Z,2.36
2016-12-01T01:06:22.600Z,2.36
2016-12-01T01:06:46.923Z,2.37
2016-12-01T01:07:08.647Z,2.36
2016-12-01T01:07:58.849Z,2.33
2016-12-01T01:08:21.569Z,2.34
2016-12-01T01:08:43.289Z,2.35
2016-12-01T01:09:06.037Z,2.35
2016-12-01T01:09:27.745Z,2.37
2016-12-01T01:09:52.002Z,2.39
2016-12-01T01:10:13.744Z,2.38
2016-12-01T01:10:35.469Z,2.39
2016-12-01T01:10:57.190Z,2.37
2016-12-01T01:11:23.685Z,2.36
2016-12-01T01:11:45.418Z,2.34
2016-12-01T01:12:11.916Z,2.32
2016-12-01T01:12:33.624Z,2.33
2016-12-01T01:12:55.358Z,2.34
2016-12-01T01:13:17.110Z,2.33
2016-12-01T01:13:38.829Z,2.33
2016-12-01T01:14:00.538Z,2.32
2016-12-01T01:14:22.246Z,2.34
2016-12-01T01:14:43.956Z,2.31
2016-12-01T01:15:05.679Z,2.30
2016-12-01T01:15:28.383Z,2.30
2016-12-01T01:15:50.107Z,2.33
2016-12-01T01:16:21.364Z,2.36
2016-12-01T01:17:15.355Z,2.40
2016-12-01T01:17:41.852Z,2.40
2016-12-01T01:18:03.568Z,2.39
2016-12-01T01:18:25.294Z,2.38
2016-12-01T01:18:47.011Z,2.37
2016-12-01T01:19:13.499Z,2.36
2016-12-01T01:19:35.223Z,2.36
2016-12-01T01:19:56.948Z,2.35
2016-12-01T01:20:23.452Z,2.32
2016-12-01T01:20:49.941Z,2.32
2016-12-01T01:21:14.447Z,2.34
2016-12-01T01:21:36.175Z,2.35
2016-12-01T01:22:29.158Z,2.37
2016-12-01T01:22:50.877Z,2.38
2016-12-01T01:23:15.165Z,2.33
2016-12-01T01:23:37.878Z,2.33
2016-12-01T01:24:00.585Z,2.30
2016-12-01T01:24:27.080Z,2.32
2016-12-01T01:24:48.808Z,2.35
2016-12-01T01:25:10.521Z,2.33
2016-12-01T01:25:37.083Z,2.31
2016-12-01T01:25:58.790Z,2.32
2016-12-01T01:26:25.294Z,2.33
2016-12-01T01:26:49.694Z,2.31
2016-12-01T01:27:11.418Z,2.29
2016-12-01T01:27:33.207Z,2.29
2016-12-01T01:27:54.922Z,2.28
2016-12-01T01:28:16.638Z,2.29
2016-12-01T01:28:38.364Z,2.29
2016-12-01T01:29:00.075Z,2.30
2016-12-01T01:29:21.807Z,2.30
2016-12-01T01:29:43.526Z,2.30
2016-12-01T01:30:05.277Z,2.31
2016-12-01T01:30:29.501Z,2.33
2016-12-01T01:31:00.778Z,2.30
2016-12-01T01:31:23.500Z,2.32
2016-12-01T01:32:11.729Z,2.32
2016-12-01T01:32:33.451Z,2.34
2016-12-01T01:32:58.083Z,2.32
2016-12-01T01:33:57.332Z,2.34
2016-12-01T01:34:51.000Z,2.34
2016-12-01T01:35:12.725Z,2.36
2016-12-01T01:35:39.240Z,2.37
2016-12-01T01:36:08.572Z,2.36
2016-12-01T01:36:30.289Z,2.34
2016-12-01T01:36:52.000Z,2.33
2016-12-01T01:37:13.769Z,2.33
2016-12-01T01:37:35.493Z,2.31
2016-12-01T01:37:57.218Z,2.30
2016-12-01T01:38:18.943Z,2.30
2016-12-01T01:38:40.647Z,2.30
2016-12-01T01:39:02.367Z,2.29
2016-12-01T01:39:33.625Z,2.29
2016-12-01T01:39:55.347Z,2.27
2016-12-01T01:40:22.230Z,2.27
2016-12-01T01:40:43.952Z,2.27
2016-12-01T01:41:08.413Z,2.27
2016-12-01T01:41:37.780Z,2.27
2016-12-01T01:41:59.522Z,2.30
2016-12-01T01:42:47.721Z,2.31
2016-12-01T01:43:14.226Z,2.30
2016-12-01T01:43:40.714Z,2.28
2016-12-01T01:44:07.195Z,2.28
2016-12-01T01:44:31.662Z,2.27
2016-12-01T01:44:58.167Z,2.24
2016-12-01T01:45:19.910Z,2.25
2016-12-01T01:45:42.728Z,2.26
2016-12-01T01:46:04.439Z,2.28
2016-12-01T01:46:26.151Z,2.31
2016-12-01T01:46:47.870Z,2.31
2016-12-01T01:47:10.586Z,2.30
2016-12-01T01:47:37.078Z,2.31
2016-12-01T01:48:03.581Z,2.30
2016-12-01T01:48:30.068Z,2.31
2016-12-01T01:49:04.015Z,2.28
2016-12-01T01:49:35.281Z,2.29
2016-12-01T01:49:57.032Z,2.30
2016-12-01T01:50:18.718Z,2.29
2016-12-01T01:50:40.429Z,2.29
2016-12-01T01:51:02.149Z,2.29
2016-12-01T01:51:23.866Z,2.27
2016-12-01T01:51:50.358Z,2.28
2016-12-01T01:52:13.075Z,2.25
2016-12-01T01:52:44.334Z,2.26
2016-12-01T01:53:06.051Z,2.29
2016-12-01T01:53:27.782Z,2.33
2016-12-01T01:53:52.159Z,2.30
2016-12-01T01:54:13.904Z,2.29
2016-12-01T01:54:45.174Z,2.26
2016-12-01T01:55:06.888Z,2.26
2016-12-01T01:55:30.619Z,2.27
2016-12-01T01:56:18.823Z,2.29
2016-12-01T01:56:45.321Z,2.31
2016-12-01T01:57:38.335Z,2.33
2016-12-01T01:58:29.518Z,2.29
2016-12-01T01:58:56.010Z,2.31
2016-12-01T01:59:48.156Z,2.25
2016-12-01T02:00:09.867Z,2.27
2016-12-01T02:00:31.587Z,2.29
2016-12-01T02:00:53.301Z,2.29
2016-12-01T02:01:15.018Z,2.26
2016-12-01T02:01:37.737Z,2.25
2016-12-01T02:01:59.450Z,2.23
2016-12-01T02:02:21.160Z,2.24
2016-12-01T02:02:43.871Z,2.22
2016-12-01T02:03:06.596Z,2.23
2016-12-01T02:03:37.854Z,2.23
2016-12-01T02:03:59.564Z,2.23
2016-12-01T02:04:21.273Z,2.22
2016-12-01T02:04:42.983Z,2.24
2016-12-01T02:05:04.702Z,2.22
2016-12-01T02:05:27.412Z,2.24
2016-12-01T02:05:49.138Z,2.23
2016-12-01T02:06:10.856Z,2.23
2016-12-01T02:07:05.655Z,2.24
2016-12-01T02:08:05.084Z,2.28
2016-12-01T02:08:26.819Z,2.25
2016-12-01T02:08:51.329Z,2.26
2016-12-01T02:09:14.041Z,2.24
2016-12-01T02:09:35.764Z,2.22
2016-12-01T02:09:58.487Z,2.21
2016-12-01T02:10:21.330Z,2.23
2016-12-01T02:10:42.944Z,2.23
2016-12-01T02:11:07.271Z,2.21
2016-12-01T02:11:36.638Z,2.24
2016-12-01T02:12:06.020Z,2.25
2016-12-01T02:12:58.995Z,2.28
2016-12-01T02:13:20.724Z,2.28
2016-12-01T02:13:42.423Z,2.26
2016-12-01T02:14:04.143Z,2.29
2016-12-01T02:14:57.924Z,2.28
2016-12-01T02:15:27.291Z,2.26
2016-12-01T02:15:49.002Z,2.24
2016-12-01T02:16:10.737Z,2.24
2016-12-01T02:16:35.240Z,2.27
2016-12-01T02:18:00.472Z,2.22
2016-12-01T02:18:22.207Z,2.24
2016-12-01T02:18:44.991Z,2.23
2016-12-01T02:20:02.318Z,2.22
2016-12-01T02:20:24.051Z,2.22
2016-12-01T02:20:45.761Z,2.20
2016-12-01T02:21:08.477Z,2.23
2016-12-01T02:21:32.235Z,2.22
2016-12-01T02:22:03.302Z,2.21
2016-12-01T02:22:29.787Z,2.22
2016-12-01T02:22:51.508Z,2.21
2016-12-01T02:23:13.219Z,2.21
2016-12-01T02:23:35.936Z,2.21
2016-12-01T02:23:57.644Z,2.21
2016-12-01T02:24:19.362Z,2.21
2016-12-01T02:24:41.077Z,2.21
2016-12-01T02:25:02.788Z,2.24
2016-12-01T02:25:24.511Z,2.25
2016-12-01T02:26:39.199Z,2.25
2016-12-01T02:27:03.583Z,2.28
2016-12-01T02:27:25.292Z,2.28
2016-12-01T02:27:56.549Z,2.28
2016-12-01T02:28:21.138Z,2.24
2016-12-01T02:28:42.847Z,2.24
2016-12-01T02:29:09.140Z,2.22
2016-12-01T02:29:30.934Z,2.25
2016-12-01T02:29:52.646Z,2.22
2016-12-01T02:30:19.150Z,2.21
2016-12-01T02:30:40.864Z,2.20
2016-12-01T02:31:02.588Z,2.23
2016-12-01T02:31:24.308Z,2.23
2016-12-01T02:31:55.565Z,2.23
2016-12-01T02:32:17.278Z,2.23
2016-12-01T02:32:38.995Z,2.21
2016-12-01T02:33:05.484Z,2.22
2016-12-01T02:33:27.196Z,2.23
2016-12-01T02:33:51.586Z,2.26
2016-12-01T02:34:13.298Z,2.28
2016-12-01T02:34:36.012Z,2.27
2016-12-01T02:34:57.740Z,2.25
2016-12-01T02:35:22.278Z,2.26
2016-12-01T02:35:43.988Z,2.27
2016-12-01T02:36:05.702Z,2.21
2016-12-01T02:36:32.194Z,2.20
2016-12-01T02:36:54.908Z,2.20
2016-12-01T02:37:19.456Z,2.23
2016-12-01T02:37:43.794Z,2.23
2016-12-01T02:38:06.505Z,2.25
2016-12-01T02:38:32.988Z,2.23
2016-12-01T02:38:54.716Z,2.21
2016-12-01T02:39:23.839Z,2.21
2016-12-01T02:39:50.269Z,2.23
2016-12-01T02:40:11.995Z,2.24
2016-12-01T02:40:36.674Z,2.24
2016-12-01T02:40:58.384Z,2.22
2016-12-01T02:41:20.091Z,2.23
2016-12-01T02:41:42.828Z,2.22
2016-12-01T02:42:05.546Z,2.20
2016-12-01T02:42:27.279Z,2.20
2016-12-01T02:42:48.990Z,2.21
2016-12-01T02:43:47.345Z,2.26
2016-12-01T02:44:09.067Z,2.28
2016-12-01T02:44:31.772Z,2.29
2016-12-01T02:45:03.034Z,2.31
2016-12-01T02:45:24.755Z,2.28
2016-12-01T02:45:49.112Z,2.28
2016-12-01T02:46:10.821Z,2.23
2016-12-01T02:46:32.543Z,2.23
2016-12-01T02:46:54.264Z,2.24
2016-12-01T02:47:42.471Z,2.18
2016-12-01T02:48:05.288Z,2.19
2016-12-01T02:48:31.589Z,2.19
2016-12-01T02:48:53.302Z,2.17
2016-12-01T02:49:17.627Z,2.16
2016-12-01T02:49:39.346Z,2.19
2016-12-01T02:50:05.859Z,2.20
2016-12-01T02:50:27.555Z,2.21
2016-12-01T02:50:49.371Z,2.23
2016-12-01T02:51:13.778Z,2.25
2016-12-01T02:51:41.260Z,2.26
2016-12-01T02:52:05.935Z,2.28
2016-12-01T02:52:32.417Z,2.28
2016-12-01T02:52:58.905Z,2.29
2016-12-01T02:53:20.646Z,2.27
2016-12-01T02:53:43.429Z,2.27
2016-12-01T02:54:05.133Z,2.25
2016-12-01T02:54:34.562Z,2.24
2016-12-01T02:54:59.890Z,2.23
2016-12-01T02:55:24.190Z,2.24
2016-12-01T02:55:45.908Z,2.26
2016-12-01T02:56:08.628Z,2.27
2016-12-01T02:56:30.340Z,2.28
2016-12-01T02:56:52.052Z,2.31
2016-12-01T02:57:14.780Z,2.34
2016-12-01T02:57:36.495Z,2.31
2016-12-01T02:58:00.233Z,2.30
2016-12-01T02:58:31.490Z,2.29
2016-12-01T02:58:58.044Z,2.26
2016-12-01T02:59:19.780Z,2.30
2016-12-01T02:59:48.283Z,2.31
2016-12-01T03:00:10.001Z,2.32
2016-12-01T03:00:36.491Z,2.32
2016-12-01T03:00:58.208Z,2.29
2016-12-01T03:01:29.467Z,2.29
2016-12-01T03:01:58.942Z,2.30
2016-12-01T03:02:20.666Z,2.33
2016-12-01T03:02:42.375Z,2.30
2016-12-01T03:03:06.749Z,2.28
2016-12-01T03:03:31.065Z,2.30
2016-12-01T03:03:57.553Z,2.30
2016-12-01T03:04:19.301Z,2.30
2016-12-01T03:04:43.560Z,2.31
2016-12-01T03:05:07.926Z,2.30
2016-12-01T03:05:29.637Z,2.31
2016-12-01T03:06:21.515Z,2.33
2016-12-01T03:06:48.007Z,2.34
2016-12-01T03:07:14.495Z,2.32
2016-12-01T03:09:16.682Z,2.36
2016-12-01T03:09:44.152Z,2.33
2016-12-01T03:10:05.873Z,2.34
2016-12-01T03:10:31.133Z,2.31
2016-12-01T03:10:55.524Z,2.34
2016-12-01T03:11:17.239Z,2.31
2016-12-01T03:11:38.991Z,2.32
2016-12-01T03:12:00.710Z,2.31
2016-12-01T03:12:54.693Z,2.30
2016-12-01T03:13:47.674Z,2.31
2016-12-01T03:14:09.405Z,2.30
2016-12-01T03:14:57.618Z,2.34
2016-12-01T03:15:19.326Z,2.33
2016-12-01T03:15:41.056Z,2.34
2016-12-01T03:16:04.768Z,2.36
2016-12-01T03:16:26.491Z,2.35
2016-12-01T03:16:48.221Z,2.35
2016-12-01T03:17:41.207Z,2.34
2016-12-01T03:18:08.690Z,2.36
2016-12-01T03:18:35.585Z,2.35
2016-12-01T03:19:29.595Z,2.40
2016-12-01T03:19:54.126Z,2.42
2016-12-01T03:20:15.852Z,2.42
2016-12-01T03:20:37.563Z,2.41
2016-12-01T03:21:09.821Z,2.37
2016-12-01T03:21:36.135Z,2.34
2016-12-01T03:22:29.121Z,2.34
2016-12-01T03:22:50.862Z,2.37
2016-12-01T03:23:15.579Z,2.40
2016-12-01T03:23:37.283Z,2.43
2016-12-01T03:24:06.277Z,2.44
2016-12-01T03:24:28.986Z,2.39
2016-12-01T03:24:55.492Z,2.38
2016-12-01T03:25:19.251Z,2.37
2016-12-01T03:25:48.514Z,2.37
2016-12-01T03:26:16.001Z,2.37
2016-12-01T03:26:47.259Z,2.38
2016-12-01T03:27:18.523Z,2.37
2016-12-01T03:28:07.744Z,2.37
2016-12-01T03:28:34.231Z,2.36
2016-12-01T03:29:05.491Z,2.36
2016-12-01T03:29:28.232Z,2.38
2016-12-01T03:29:50.939Z,2.37
2016-12-01T03:30:18.099Z,2.37
2016-12-01T03:30:44.611Z,2.38
2016-12-01T03:31:06.320Z,2.37
2016-12-01T03:32:01.309Z,2.34
2016-12-01T03:32:23.018Z,2.35
2016-12-01T03:32:44.728Z,2.34
2016-12-01T03:33:38.500Z,2.31
2016-12-01T03:34:00.211Z,2.31
2016-12-01T03:34:24.612Z,2.33
2016-12-01T03:34:48.910Z,2.37
2016-12-01T03:35:13.621Z,2.38
2016-12-01T03:35:38.005Z,2.37
2016-12-01T03:35:59.714Z,2.39
2016-12-01T03:36:21.433Z,2.38
2016-12-01T03:36:43.154Z,2.36
2016-12-01T03:37:05.865Z,2.33
2016-12-01T03:38:26.130Z,2.37
2016-12-01T03:39:20.213Z,2.35
2016-12-01T03:40:27.988Z,2.34
2016-12-01T03:40:58.363Z,2.36
2016-12-01T03:41:51.367Z,2.33
2016-12-01T03:42:39.572Z,2.33
2016-12-01T03:43:02.307Z,2.34
2016-12-01T03:43:24.028Z,2.36
2016-12-01T03:44:46.464Z,2.38
2016-12-01T03:45:08.181Z,2.37
2016-12-01T03:45:29.966Z,2.37
2016-12-01T03:45:51.683Z,2.35
2016-12-01T03:46:13.391Z,2.38
2016-12-01T03:47:02.604Z,2.39
2016-12-01T03:48:05.120Z,2.34
2016-12-01T03:48:26.843Z,2.34
2016-12-01T03:48:50.559Z,2.36
2016-12-01T03:49:12.282Z,2.38
2016-12-01T03:49:35.029Z,2.37
2016-12-01T03:49:56.737Z,2.36
2016-12-01T03:50:18.447Z,2.36
2016-12-01T03:50:40.151Z,2.36
2016-12-01T03:51:01.865Z,2.37
2016-12-01T03:51:23.586Z,2.40
2016-12-01T03:51:46.290Z,2.39
2016-12-01T03:52:08.012Z,2.37
2016-12-01T03:52:29.725Z,2.37
2016-12-01T03:52:51.433Z,2.39
2016-12-01T03:53:13.148Z,2.40
2016-12-01T03:53:34.852Z,2.39
2016-12-01T03:53:56.564Z,2.42
2016-12-01T03:54:18.299Z,2.44
2016-12-01T03:55:15.799Z,2.42
2016-12-01T03:55:45.195Z,2.42
2016-12-01T03:56:08.036Z,2.42
2016-12-01T03:56:29.626Z,2.45
2016-12-01T03:56:51.342Z,2.44
2016-12-01T03:57:13.104Z,2.43
2016-12-01T03:57:37.643Z,2.41
2016-12-01T03:57:59.365Z,2.41
2016-12-01T03:58:22.070Z,2.41
2016-12-01T03:58:43.790Z,2.40
2016-12-01T03:59:36.786Z,2.40
2016-12-01T04:00:26.961Z,2.39
2016-12-01T04:01:17.909Z,2.38
2016-12-01T04:01:39.618Z,2.37
2016-12-01T04:02:01.389Z,2.39
2016-12-01T04:02:24.129Z,2.38
2016-12-01T04:02:45.842Z,2.38
2016-12-01T04:03:13.383Z,2.40
2016-12-01T04:04:03.997Z,2.41
2016-12-01T04:04:25.716Z,2.41
2016-12-01T04:05:13.923Z,2.42
2016-12-01T04:05:35.654Z,2.43
2016-12-01T04:06:23.867Z,2.41
2016-12-01T04:06:45.578Z,2.39
2016-12-01T04:07:07.286Z,2.38
2016-12-01T04:07:28.998Z,2.38
2016-12-01T04:07:50.721Z,2.39
2016-12-01T04:08:12.429Z,2.37
2016-12-01T04:08:34.139Z,2.39
2016-12-01T04:08:55.859Z,2.38
2016-12-01T04:09:22.343Z,2.37
2016-12-01T04:09:48.841Z,2.37
2016-12-01T04:10:15.329Z,2.36
2016-12-01T04:10:39.855Z,2.36
2016-12-01T04:11:01.576Z,2.34
2016-12-01T04:11:23.291Z,2.34
2016-12-01T04:11:44.999Z,2.33
2016-12-01T04:12:06.712Z,2.33
2016-12-01T04:12:28.425Z,2.32
2016-12-01T04:12:50.140Z,2.32
2016-12-01T04:13:43.024Z,2.35
2016-12-01T04:14:32.234Z,2.35
2016-12-01T04:14:53.944Z,2.34
2016-12-01T04:15:16.662Z,2.35
2016-12-01T04:15:38.373Z,2.36
2016-12-01T04:16:45.970Z,2.37
2016-12-01T04:17:07.682Z,2.37
2016-12-01T04:17:30.395Z,2.36
2016-12-01T04:17:53.121Z,2.39
2016-12-01T04:18:14.852Z,2.41
2016-12-01T04:18:36.571Z,2.42
2016-12-01T04:19:00.984Z,2.40
2016-12-01T04:19:53.978Z,2.38
2016-12-01T04:20:15.681Z,2.38
2016-12-01T04:20:37.387Z,2.38
2016-12-01T04:21:03.921Z,2.38
2016-12-01T04:21:26.631Z,2.38
2016-12-01T04:21:48.349Z,2.42
2016-12-01T04:22:10.058Z,2.42
2016-12-01T04:22:42.314Z,2.41
2016-12-01T04:23:04.091Z,2.40
2016-12-01T04:23:30.396Z,2.43
2016-12-01T04:23:54.102Z,2.43
2016-12-01T04:24:15.810Z,2.41
2016-12-01T04:24:37.525Z,2.42
2016-12-01T04:25:02.085Z,2.40
2016-12-01T04:25:24.848Z,2.42
2016-12-01T04:25:46.630Z,2.42
2016-12-01T04:26:08.348Z,2.44
2016-12-01T04:26:30.115Z,2.45
2016-12-01T04:26:57.612Z,2.42
2016-12-01T04:27:19.321Z,2.40
2016-12-01T04:27:43.945Z,2.41
2016-12-01T04:28:11.428Z,2.39
2016-12-01T04:28:33.140Z,2.41
2016-12-01T04:28:54.846Z,2.42
2016-12-01T04:29:16.556Z,2.44
2016-12-01T04:29:38.269Z,2.45
2016-12-01T04:30:00.055Z,2.45
2016-12-01T04:30:21.768Z,2.42
2016-12-01T04:30:53.029Z,2.42
2016-12-01T04:31:15.730Z,2.44
2016-12-01T04:31:46.995Z,2.45
2016-12-01T04:32:08.710Z,2.46
2016-12-01T04:32:56.946Z,2.46
2016-12-01T04:33:23.432Z,2.48
2016-12-01T04:33:52.629Z,2.50
2016-12-01T04:34:14.344Z,2.49
2016-12-01T04:34:36.054Z,2.50
2016-12-01T04:35:01.610Z,2.49
2016-12-01T04:35:32.686Z,2.45
2016-12-01T04:35:58.367Z,2.44
2016-12-01T04:36:46.599Z,2.49
2016-12-01T04:37:08.311Z,2.48
2016-12-01T04:37:30.024Z,2.46
2016-12-01T04:37:51.732Z,2.45
2016-12-01T04:38:39.933Z,2.47
2016-12-01T04:39:01.660Z,2.46
2016-12-01T04:39:29.155Z,2.46
2016-12-01T04:39:50.874Z,2.46
2016-12-01T04:40:12.603Z,2.47
2016-12-01T04:40:34.313Z,2.47
2016-12-01T04:40:56.111Z,2.48
2016-12-01T04:41:18.828Z,2.48
2016-12-01T04:41:40.550Z,2.51
2016-12-01T04:42:07.049Z,2.51
2016-12-01T04:42:28.765Z,2.51
2016-12-01T04:42:50.497Z,2.49
2016-12-01T04:43:12.224Z,2.49
2016-12-01T04:43:33.944Z,2.48
2016-12-01T04:43:56.652Z,2.47
2016-12-01T04:44:23.151Z,2.49
2016-12-01T04:44:45.869Z,2.48
2016-12-01T04:45:07.588Z,2.49
2016-12-01T04:45:32.205Z,2.48
2016-12-01T04:45:57.504Z,2.47
2016-12-01T04:46:19.219Z,2.47
2016-12-01T04:47:17.412Z,2.50
2016-12-01T04:48:09.240Z,2.49
2016-12-01T04:48:36.723Z,2.49
2016-12-01T04:49:00.430Z,2.47
2016-12-01T04:49:26.910Z,2.47
2016-12-01T04:49:54.392Z,2.48
2016-12-01T04:50:20.873Z,2.51
2016-12-01T04:51:18.655Z,2.51
2016-12-01T04:51:40.372Z,2.50
2016-12-01T04:52:02.100Z,2.50
2016-12-01T04:52:28.608Z,2.50
2016-12-01T04:52:50.520Z,2.49
2016-12-01T04:53:13.243Z,2.50
2016-12-01T04:54:06.249Z,2.50
2016-12-01T04:54:40.057Z,2.51
2016-12-01T04:55:07.942Z,2.49
2016-12-01T04:55:30.657Z,2.50
2016-12-01T04:55:52.369Z,2.49
2016-12-01T04:56:14.094Z,2.48
2016-12-01T04:56:41.305Z,2.48
2016-12-01T04:57:12.568Z,2.48
2016-12-01T04:57:37.031Z,2.47
2016-12-01T04:57:58.854Z,2.48
2016-12-01T04:58:47.104Z,2.49
2016-12-01T04:59:09.818Z,2.51
2016-12-01T04:59:34.209Z,2.50
2016-12-01T05:00:01.504Z,2.52
2016-12-01T05:00:23.226Z,2.51
2016-12-01T05:00:44.945Z,2.50
2016-12-01T05:01:06.646Z,2.48
2016-12-01T05:01:31.362Z,2.45
2016-12-01T05:01:53.122Z,2.44
2016-12-01T05:02:14.830Z,2.47
2016-12-01T05:02:36.565Z,2.46
2016-12-01T05:02:58.322Z,2.44
2016-12-01T05:03:20.082Z,2.43
2016-12-01T05:03:41.817Z,2.46
2016-12-01T05:04:04.525Z,2.44
2016-12-01T05:04:33.553Z,2.45
2016-12-01T05:05:29.348Z,2.49
2016-12-01T05:05:55.066Z,2.48
2016-12-01T05:06:16.792Z,2.48
2016-12-01T05:06:38.508Z,2.46
2016-12-01T05:07:09.769Z,2.47
2016-12-01T05:07:34.421Z,2.48
2016-12-01T05:07:57.190Z,2.48
2016-12-01T05:08:18.918Z,2.48
2016-12-01T05:08:40.641Z,2.49
2016-12-01T05:09:11.728Z,2.50
2016-12-01T05:09:34.441Z,2.50
2016-12-01T05:09:56.150Z,2.48
2016-12-01T05:10:27.864Z,2.45
2016-12-01T05:10:54.358Z,2.45
2016-12-01T05:11:21.639Z,2.45
2016-12-01T05:11:43.357Z,2.44
2016-12-01T05:12:09.841Z,2.43
2016-12-01T05:12:32.707Z,2.44
2016-12-01T05:12:54.426Z,2.43
2016-12-01T05:13:20.730Z,2.43
2016-12-01T05:13:49.579Z,2.46
2016-12-01T05:14:16.073Z,2.46
2016-12-01T05:14:37.788Z,2.47
2016-12-01T05:15:04.293Z,2.47
2016-12-01T05:15:26.014Z,2.47
2016-12-01T05:15:52.308Z,2.47
2016-12-01T05:16:20.884Z,2.44
2016-12-01T05:17:15.687Z,2.47
2016-12-01T05:18:08.686Z,2.45
2016-12-01T05:18:39.943Z,2.42
2016-12-01T05:19:01.662Z,2.42
2016-12-01T05:19:23.371Z,2.43
2016-12-01T05:20:43.382Z,2.38
2016-12-01T05:21:09.065Z,2.37
2016-12-01T05:21:34.328Z,2.38
2016-12-01T05:21:56.039Z,2.39
2016-12-01T05:22:21.573Z,2.39
2016-12-01T05:22:44.321Z,2.37
2016-12-01T05:23:07.058Z,2.37
2016-12-01T05:23:29.785Z,2.37
2016-12-01T05:23:51.506Z,2.40
2016-12-01T05:24:54.022Z,2.37
2016-12-01T05:25:15.731Z,2.36
2016-12-01T05:25:42.243Z,2.36
2016-12-01T05:26:03.984Z,2.36
2016-12-01T05:26:27.706Z,2.37
2016-12-01T05:26:49.417Z,2.37
2016-12-01T05:27:15.906Z,2.39
2016-12-01T05:27:41.562Z,2.35
2016-12-01T05:28:31.750Z,2.34
2016-12-01T05:28:53.625Z,2.33
2016-12-01T05:29:15.349Z,2.31
2016-12-01T05:29:37.058Z,2.30
2016-12-01T05:29:59.777Z,2.32
2016-12-01T05:30:21.490Z,2.35
2016-12-01T05:30:47.973Z,2.36
2016-12-01T05:31:14.456Z,2.32
2016-12-01T05:31:37.199Z,2.31
2016-12-01T05:32:11.345Z,2.31
2016-12-01T05:32:39.111Z,2.28
2016-12-01T05:33:32.839Z,2.30
2016-12-01T05:34:21.343Z,2.30
2016-12-01T05:34:44.029Z,2.28
2016-12-01T05:35:16.297Z,2.28
2016-12-01T05:36:13.866Z,2.32
2016-12-01T05:37:03.129Z,2.31
2016-12-01T05:37:28.497Z,2.35
2016-12-01T05:37:50.215Z,2.34
2016-12-01T05:38:11.944Z,2.36
2016-12-01T05:38:36.538Z,2.35
2016-12-01T05:38:58.261Z,2.34
2016-12-01T05:40:19.716Z,2.34
2016-12-01T05:41:13.603Z,2.36
2016-12-01T05:41:36.312Z,2.33
2016-12-01T05:41:58.032Z,2.30
2016-12-01T05:42:24.524Z,2.30
2016-12-01T05:42:55.789Z,2.34
2016-12-01T05:43:18.500Z,2.36
2016-12-01T05:44:12.511Z,2.33
2016-12-01T05:44:37.961Z,2.32
2016-12-01T05:45:28.650Z,2.34
2016-12-01T05:45:59.910Z,2.30
2016-12-01T05:46:22.623Z,2.30
2016-12-01T05:47:55.284Z,2.29
2016-12-01T05:48:26.544Z,2.30
2016-12-01T05:48:49.276Z,2.31
2016-12-01T05:49:10.982Z,2.30
2016-12-01T05:49:32.692Z,2.30
2016-12-01T05:50:20.908Z,2.29
2016-12-01T05:50:43.647Z,2.30
2016-12-01T05:51:09.961Z,2.28
2016-12-01T05:51:37.120Z,2.27
2016-12-01T05:52:08.373Z,2.26
2016-12-01T05:52:34.858Z,2.24
2016-12-01T05:53:01.167Z,2.23
2016-12-01T05:53:54.489Z,2.26
2016-12-01T05:54:21.974Z,2.27
2016-12-01T05:54:47.602Z,2.27
2016-12-01T05:55:14.227Z,2.28
2016-12-01T05:55:40.725Z,2.29
2016-12-01T05:56:02.448Z,2.26
2016-12-01T05:56:27.049Z,2.27
2016-12-01T05:56:51.382Z,2.27
2016-12-01T05:57:13.288Z,2.26
2016-12-01T05:57:35.136Z,2.24
2016-12-01T05:58:40.356Z,2.24
2016-12-01T05:59:04.077Z,2.25
2016-12-01T05:59:30.561Z,2.26
2016-12-01T05:59:57.054Z,2.25
2016-12-01T06:00:26.422Z,2.25
2016-12-01T06:00:54.575Z,2.29
2016-12-01T06:01:17.296Z,2.31
2016-12-01T06:01:41.727Z,2.34
2016-12-01T06:02:04.450Z,2.34
2016-12-01T06:02:30.944Z,2.33
2016-12-01T06:02:52.654Z,2.33
2016-12-01T06:04:16.903Z,2.34
2016-12-01T06:04:38.628Z,2.33
2016-12-01T06:05:01.448Z,2.30
2016-12-01T06:05:28.384Z,2.33
2016-12-01T06:05:50.097Z,2.34
2016-12-01T06:06:16.597Z,2.31
2016-12-01T06:06:44.075Z,2.31
2016-12-01T06:07:06.921Z,2.29
2016-12-01T06:07:28.505Z,2.32
2016-12-01T06:07:50.213Z,2.33
2016-12-01T06:08:11.928Z,2.31
2016-12-01T06:08:33.645Z,2.30
2016-12-01T06:09:01.125Z,2.31
2016-12-01T06:09:27.740Z,2.31
2016-12-01T06:09:54.235Z,2.31
2016-12-01T06:10:18.504Z,2.33
2016-12-01T06:10:44.994Z,2.32
2016-12-01T06:11:16.257Z,2.31
2016-12-01T06:11:38.971Z,2.28
2016-12-01T06:12:27.010Z,2.27
2016-12-01T06:13:28.340Z,2.28
2016-12-01T06:13:57.575Z,2.30
2016-12-01T06:14:19.341Z,2.30